CYYG

Charlottetown Airport

Charlottetown, Prince Edward Island, Canada
TAF AMD CYYG 181505Z 1815/1824 34010G20KT 5SM -RA BR BKN005 OVC010 TEMPO 1815/1818 P6SM -RA FEW004 OVC010 FM181800 03015G25KT 4SM -RA BR BKN008 OVC020 RMK NXT FCST BY 181800Z
Issued Valid From Valid To
Sep-18 @ 15:05 UTC
(2 hours ago)
Sep-18 @ 15:00 UTC
(3 hours ago)
Sep-19 @ 00:00 UTC
(in 6 hours)
Sep-18 @ 15:00 to Sep-18 @ 18:00
TAF AMD CYYG 181505Z 1815/1824 34010G20KT 5SM -RA BR BKN005 OVC010
Wind Visibility Clouds Conditions
340° at 10 knots
 Gusting to 20 knots
5 miles
  • Broken at 500' AGL
  • Overcast at 1,000' AGL
  • Light Rain
  • Mist
Temporary Sep-18 @ 15:00 to Sep-18 @ 18:00
TEMPO 1815/1818 P6SM -RA FEW004 OVC010
Visibility Clouds Conditions
Greater than 6 miles
  • Few at 400' AGL
  • Overcast at 1,000' AGL
  • Light Rain
From Sep-18 @ 18:00 to Sep-19 @ 00:00
FM181800 03015G25KT 4SM -RA BR BKN008 OVC020 RMK NXT FCST BY 181800Z
Wind Visibility Clouds Conditions
30° at 15 knots
 Gusting to 25 knots
4 miles
  • Broken at 800' AGL
  • Overcast at 2,000' AGL
  • Light Rain
  • Mist
TAF AMD CYYG 181505Z 1815/1824 34010G20KT 5SM -RA BR BKN005 OVC010 TEMPO 1815/1818 P6SM -RA FEW004 OVC010 FM181800 03015G25KT 4SM -RA BR BKN008 OVC020 RMK NXT FCST BY 181800Z
Issued Sep-18 @ 15:05 UTC
(2 hours ago)
Valid From Sep-18 @ 15:00 UTC
(3 hours ago)
Valid To Sep-19 @ 00:00 UTC
(in 6 hours)
Sep-18 @ 15:00 - Sep-18 @ 18:00
Wind Visibility
340° at 10 knots
 Gusting to 20 knots
5 miles
Clouds
  • Broken at 500' AGL
  • Overcast at 1,000' AGL
Conditions
  • Light Rain
  • Mist
Temporary Sep-18 @ 15:00 - Sep-18 @ 18:00
Clouds
  • Few at 400' AGL
  • Overcast at 1,000' AGL
Conditions
  • Light Rain
From Sep-18 @ 18:00 - Sep-19 @ 00:00
Wind Visibility
30° at 15 knots
 Gusting to 25 knots
4 miles
Clouds
  • Broken at 800' AGL
  • Overcast at 2,000' AGL
Conditions
  • Light Rain
  • Mist